Flight Track Log - Related Links

Times and Time Zones

All times are in EDT time to prevent confusion due to time zone crossing. See the SWA2353 flight status page for this flight to view local times or setup timezone preferences in your user account.

Time Position Orientation Groundspeed Altitude Reporting Facility
EDT Latitude Longitude Course Direction KTS MPH feet Rate Location/Type
Wed 09:31:44 PM 41.7667 -87.7667 217° Southwest 147 169 1,700  Level Chicago TRACON
Wed 09:32:38 PM 41.7333 -87.8000 217° Southwest 193 222 3,600 3,270 Climbing Chicago TRACON
Wed 09:34:42 PM 41.6181 -87.8933 211° Southwest 256 295 11,400 3,387 Climbing Chicago Center
Wed 09:35:44 PM 41.5392 -87.9442 206° Southwest 302 348 14,100 3,000 Climbing Chicago Center
Wed 09:36:46 PM 41.4475 -88.0031 206° Southwest 351 404 17,600 3,659 Climbing Chicago Center
Wed 09:37:47 PM 41.3375 -88.0525 199° South 399 459 21,600 3,805 Climbing Chicago Center
Wed 09:38:49 PM 41.2353 -88.0861 194° South 382 440 25,400 2,129 Climbing Chicago Center
Wed 09:39:51 PM 41.1247 -88.0986 185° South 397 457 26,000 293 Climbing Chicago Center
Wed 09:40:52 PM 41.0050 -88.1131 185° South 425 489 26,000  Level Chicago Center
Wed 09:41:54 PM 40.8853 -88.1267 185° South 433 498 26,000  Level Chicago Center
Wed 09:42:56 PM 40.7422 -88.1447 185° South 434 499 26,000  Level Chicago Center
Wed 09:43:57 PM 40.6233 -88.1589 185° South 432 497 26,000  Level Chicago Center
Wed 09:44:59 PM 40.5086 -88.1997 195° South 430 495 26,000  Level Chicago Center
Wed 09:46:00 PM 40.3956 -88.2536 200° South 434 499 26,000  Level Chicago Center
Wed 09:47:02 PM 40.2839 -88.3061 200° South 431 496 26,000  Level Chicago Center
Wed 09:48:04 PM 40.1697 -88.3600 200° South 431 496 26,000  Level Chicago Center
Wed 09:48:54 PM 40.0786 -88.4003 199° South 432 497 26,000  Level Kansas City Center
Wed 09:49:56 PM 39.9714 -88.4703 207° Southwest 439 505 26,000  Level Kansas City Center
Wed 09:50:57 PM 39.8467 -88.5728 212° Southwest 440 506 26,000  Level Kansas City Center
Wed 09:51:58 PM 39.7425 -88.6525 210° Southwest 436 502 26,000  Level Kansas City Center
Wed 09:53:00 PM 39.6392 -88.7353 212° Southwest 435 501 26,000  Level Kansas City Center
Wed 09:54:01 PM 39.5353 -88.8167 211° Southwest 435 501 26,000  Level Kansas City Center
Wed 09:55:03 PM 39.4331 -88.8969 211° Southwest 432 497 26,000  Level Kansas City Center
Wed 09:56:04 PM 39.3386 -88.9717 211° Southwest 431 496 26,000  Level Kansas City Center
Wed 09:57:06 PM 39.2150 -89.0675 211° Southwest 432 497 26,000 -439 Level Kansas City Center
Wed 09:58:07 PM 39.1131 -89.1472 211° Southwest 426 490 25,100 -1,426 Descending Kansas City Center
Wed 09:59:08 PM 39.0692 -89.2694 245° Southwest 391 450 23,100 -2,244 Descending Kansas City Center
Wed 10:00:10 PM 39.0364 -89.4142 254° West 392 451 20,500 -2,439 Descending Kansas City Center
Wed 10:01:11 PM 39.0061 -89.5497 254° West 396 456 18,100 -2,439 Descending Kansas City Center
Wed 10:02:13 PM 38.9708 -89.6761 250° West 383 441 15,500 -1,805 Descending Kansas City Center
Wed 10:03:14 PM 38.9294 -89.8064 248° West 370 426 14,400 -1,426 Descending Kansas City Center
Wed 10:04:15 PM 38.8989 -89.9006 247° West 350 403 12,600 -1,854 Descending Kansas City Center
Wed 10:05:17 PM 38.8644 -90.0108 248° West 339 390 10,600 -1,561 Descending Kansas City Center
Wed 10:06:18 PM 38.8272 -90.1292 248° West 298 343 9,400 -1,328 Descending Kansas City Center
Wed 10:07:19 PM 38.8022 -90.2225 251° West 285 328 7,900 -1,366 Descending Kansas City Center
Wed 10:08:21 PM 38.8369 -90.3058 298° West 275 316 6,600 -1,128 Descending Kansas City Center
Wed 10:09:16 PM 38.8667 -90.3833 296° West 236 272 5,700 -1,148 Descending Gateway (St. Louis) TRACON
Wed 10:10:16 PM 38.9000 -90.4500 303° West 216 249 4,400 -1,450 Descending Gateway (St. Louis) TRACON
Wed 10:11:16 PM 38.8667 -90.4833 218° Southwest 196 226 2,800 -1,000 Descending Gateway (St. Louis) TRACON
Wed 10:12:16 PM 38.8167 -90.4833 180° South 167 192 2,400 -450 Descending Gateway (St. Louis) TRACON
Wed 10:13:16 PM 38.7833 -90.4500 142° Southeast 144 166 1,900 -571 Descending Gateway (St. Louis) TRACON
Wed 10:14:22 PM 38.7667 -90.4000 113° Southeast 117 135 1,200 -600 Descending Gateway (St. Louis) TRACON
Wed 10:15:16 PM 38.7500 -90.3667 123° Southeast 122 140 700 -556 Descending Gateway (St. Louis) TRACON

Login

Don't have an account? Register now (free) for customized features, flight alerts, and more!